Time;durP1;ratioP1;P1;durP2;ratioP2;P2;SDS_P1;SDS_P2;PMS_P1;PMS_P2;Temp;Humidity;BMP_temperature;BMP_pressure;BME280_temperature;BME280_humidity;BME280_pressure;Samples;Min_cycle;Max_cycle;Signal;HPM_P1;HPM_P2
2023/01/20 04:00:46;;;;;;;26.47;20.73;;;0.10;99.90;;;;;;5993884;23;21876;-79
2023/01/20 04:03:26;;;;;;;25.73;22.13;;;0.10;99.90;;;;;;5018289;28;20186;-80
2023/01/20 04:05:53;;;;;;;24.90;21.13;;;0.10;99.90;;;;;;5018627;28;20207;-79
2023/01/20 04:08:23;;;;;;;26.27;19.67;;;0.00;99.90;;;;;;5014913;28;20270;-77
2023/01/20 04:10:50;;;;;;;24.40;21.13;;;0.10;99.90;;;;;;5014014;28;20211;-79
2023/01/20 04:13:16;;;;;;;29.70;20.43;;;0.10;99.90;;;;;;5007502;28;20189;-80
2023/01/20 04:15:44;;;;;;;25.77;21.27;;;0.00;99.90;;;;;;5000605;28;20180;-79
2023/01/20 04:18:14;;;;;;;29.93;21.17;;;0.10;99.90;;;;;;4998509;28;20182;-79
2023/01/20 04:20:41;;;;;;;30.50;21.13;;;0.00;99.90;;;;;;5012285;28;20395;-79
2023/01/20 04:23:11;;;;;;;27.70;20.50;;;0.00;99.90;;;;;;5016000;28;20270;-80
2023/01/20 04:25:37;;;;;;;40.90;21.40;;;0.10;99.90;;;;;;5016819;28;20829;-79
2023/01/20 04:28:02;;;;;;;27.10;24.20;;;0.10;99.90;;;;;;5022496;28;20315;-80
2023/01/20 04:30:28;;;;;;;28.80;22.97;;;0.10;99.90;;;;;;5023606;28;20189;-79
2023/01/20 04:32:54;;;;;;;27.87;20.83;;;0.10;99.90;;;;;;5022720;28;20179;-79
2023/01/20 04:35:20;;;;;;;24.93;20.00;;;0.10;99.90;;;;;;5021474;28;20561;-80
2023/01/20 04:37:46;;;;;;;24.93;19.97;;;0.10;99.90;;;;;;5018477;28;20186;-80
2023/01/20 04:40:12;;;;;;;22.00;18.67;;;0.10;99.90;;;;;;5024376;28;20201;-79
2023/01/20 04:42:38;;;;;;;22.10;19.70;;;0.10;99.90;;;;;;5023556;28;20199;-79
2023/01/20 04:45:04;;;;;;;26.23;20.23;;;0.20;99.90;;;;;;5024198;28;20221;-79
2023/01/20 04:47:32;;;;;;;29.67;21.13;;;0.20;99.90;;;;;;5030829;28;20246;-80
2023/01/20 04:49:58;;;;;;;31.07;20.80;;;0.20;99.90;;;;;;5025945;28;20214;-80
2023/01/20 04:52:24;;;;;;;25.57;22.23;;;0.20;99.90;;;;;;5024449;28;20203;-80
2023/01/20 04:54:50;;;;;;;28.23;22.53;;;0.20;99.90;;;;;;5017032;28;20188;-79
2023/01/20 04:57:15;;;;;;;34.50;21.53;;;0.20;99.90;;;;;;5016593;28;20210;-80
2023/01/20 04:59:41;;;;;;;31.73;22.00;;;0.20;99.90;;;;;;5014310;28;20368;-80
2023/01/20 05:02:07;;;;;;;29.80;21.13;;;0.20;99.90;;;;;;5023486;28;20238;-80
2023/01/20 05:04:33;;;;;;;29.57;21.87;;;0.20;99.90;;;;;;5015362;28;20185;-80
2023/01/20 05:06:59;;;;;;;27.67;22.23;;;0.10;99.90;;;;;;5015116;28;20213;-80
2023/01/20 05:09:25;;;;;;;33.00;23.30;;;0.10;99.90;;;;;;5016842;28;20183;-80
2023/01/20 05:11:50;;;;;;;32.03;24.40;;;0.10;99.90;;;;;;5015468;28;20207;-79
2023/01/20 05:14:16;;;;;;;26.43;21.93;;;0.00;99.90;;;;;;5014890;28;20189;-79
2023/01/20 05:16:42;;;;;;;35.60;23.47;;;-0.10;99.90;;;;;;5017428;28;20192;-81
2023/01/20 05:19:10;;;;;;;28.70;21.30;;;-0.10;99.90;;;;;;5019510;28;20209;-79
2023/01/20 05:21:36;;;;;;;24.50;21.00;;;-0.20;99.90;;;;;;5023907;28;20195;-79
2023/01/20 05:24:02;;;;;;;29.53;24.50;;;-0.20;99.90;;;;;;5026961;28;20250;-81
2023/01/20 05:26:27;;;;;;;39.20;31.07;;;-0.30;99.90;;;;;;5023791;28;20209;-80
2023/01/20 05:28:53;;;;;;;30.13;25.37;;;-0.30;99.90;;;;;;5025027;28;20182;-81
2023/01/20 05:31:19;;;;;;;27.97;24.30;;;-0.40;99.90;;;;;;5025948;28;20223;-81
2023/01/20 05:33:45;;;;;;;28.43;21.30;;;-0.40;99.90;;;;;;5022325;28;20190;-81
2023/01/20 05:36:11;;;;;;;30.03;22.00;;;-0.30;99.90;;;;;;5011631;28;20245;-83
2023/01/20 05:38:37;;;;;;;26.27;21.37;;;-0.20;99.90;;;;;;5002218;28;20193;-69
2023/01/20 05:41:05;;;;;;;31.03;25.07;;;-0.20;99.90;;;;;;4992757;28;20266;-70
2023/01/20 05:43:31;;;;;;;29.33;21.97;;;-0.20;99.90;;;;;;4995440;28;20277;-71
2023/01/20 05:45:57;;;;;;;24.90;21.37;;;-0.20;99.90;;;;;;4994030;28;20299;-70
2023/01/20 05:48:24;;;;;;;32.63;21.23;;;-0.20;99.90;;;;;;4993827;28;20268;-69
2023/01/20 05:50:50;;;;;;;32.70;23.93;;;-0.20;99.90;;;;;;5010430;28;20202;-72
2023/01/20 05:53:16;;;;;;;31.63;23.33;;;-0.10;99.90;;;;;;5011890;28;20177;-70
2023/01/20 05:55:43;;;;;;;31.17;23.73;;;-0.10;99.90;;;;;;5013184;28;20216;-70
2023/01/20 05:58:09;;;;;;;37.77;31.33;;;0.00;99.90;;;;;;5012912;28;20636;-70
2023/01/20 06:00:34;;;;;;;28.83;25.73;;;0.00;99.90;;;;;;5013252;28;20208;-70
2023/01/20 06:03:01;;;;;;;28.60;24.60;;;0.00;99.90;;;;;;5013243;28;20193;-70
2023/01/20 06:05:26;;;;;;;29.83;24.63;;;0.10;99.90;;;;;;5014117;28;20179;-70
2023/01/20 06:07:55;;;;;;;31.50;24.40;;;0.10;99.90;;;;;;5012810;28;20736;-70
2023/01/20 06:10:28;;;;;;;31.93;25.70;;;0.20;99.90;;;;;;5013663;28;20195;-70
2023/01/20 06:12:55;;;;;;;35.43;24.77;;;0.20;99.90;;;;;;5013627;28;20188;-70
2023/01/20 06:15:22;;;;;;;31.73;25.83;;;0.20;99.90;;;;;;5011937;28;20190;-70
2023/01/20 06:17:49;;;;;;;36.97;25.93;;;0.20;99.90;;;;;;5012955;28;20687;-70
2023/01/20 06:20:15;;;;;;;42.23;27.47;;;0.20;99.90;;;;;;5013287;28;20232;-70
2023/01/20 06:22:41;;;;;;;36.57;26.00;;;0.20;99.90;;;;;;5012683;28;20204;-70
2023/01/20 06:25:07;;;;;;;37.07;30.63;;;0.30;99.90;;;;;;5013173;28;20176;-70
2023/01/20 06:27:33;;;;;;;36.23;26.70;;;0.30;99.90;;;;;;5011572;28;20211;-70
2023/01/20 06:29:58;;;;;;;30.83;24.70;;;0.30;99.90;;;;;;5012772;28;20401;-71
2023/01/20 06:32:24;;;;;;;30.80;25.20;;;0.30;99.90;;;;;;5012793;28;20752;-70
2023/01/20 06:34:52;;;;;;;29.90;24.43;;;0.30;99.90;;;;;;5012446;28;20183;-70
2023/01/20 06:37:18;;;;;;;28.60;23.90;;;0.30;99.90;;;;;;5005536;28;20184;-71
2023/01/20 06:39:44;;;;;;;31.33;20.93;;;0.40;99.90;;;;;;5012816;28;20190;-70
2023/01/20 06:42:09;;;;;;;33.33;23.13;;;0.40;99.90;;;;;;5007886;28;20597;-70
2023/01/20 06:44:35;;;;;;;39.00;27.60;;;0.40;99.90;;;;;;5002954;28;20185;-69
2023/01/20 06:47:01;;;;;;;33.43;26.27;;;0.40;99.90;;;;;;5007818;28;20302;-71
2023/01/20 06:49:27;;;;;;;30.40;25.47;;;0.50;99.90;;;;;;5006042;28;20186;-70
2023/01/20 06:51:56;;;;;;;33.47;25.80;;;0.50;99.90;;;;;;5011213;28;20292;-70
2023/01/20 06:54:22;;;;;;;33.17;28.20;;;0.50;99.90;;;;;;5011345;28;20179;-70
2023/01/20 06:56:48;;;;;;;32.00;28.07;;;0.50;99.90;;;;;;5011543;28;20278;-70
2023/01/20 06:59:14;;;;;;;41.93;28.73;;;0.40;99.90;;;;;;5012422;28;20189;-70
2023/01/20 07:01:39;;;;;;;31.70;28.50;;;0.40;99.90;;;;;;4996871;28;20214;-70
2023/01/20 07:04:07;;;;;;;34.77;27.20;;;0.40;99.90;;;;;;5005112;28;20191;-70
2023/01/20 07:06:37;;;;;;;34.70;25.63;;;0.40;99.90;;;;;;5009351;28;20211;-70
2023/01/20 07:09:04;;;;;;;31.30;24.27;;;0.40;99.90;;;;;;5011179;28;20674;-71
2023/01/20 07:11:30;;;;;;;29.13;22.73;;;0.40;99.90;;;;;;4997826;28;20287;-71
2023/01/20 07:13:56;;;;;;;29.83;23.37;;;0.40;99.90;;;;;;4991561;28;20748;-71
2023/01/20 07:16:22;;;;;;;30.43;23.30;;;0.40;99.90;;;;;;4996185;28;20183;-71
2023/01/20 07:18:49;;;;;;;32.77;23.90;;;0.50;99.90;;;;;;5011834;28;20180;-70
2023/01/20 07:21:15;;;;;;;33.13;24.53;;;0.50;99.90;;;;;;5005307;28;20295;-70
2023/01/20 07:23:41;;;;;;;33.23;26.83;;;0.50;99.90;;;;;;4992556;28;20316;-70
2023/01/20 07:26:09;;;;;;;35.60;28.53;;;0.50;99.90;;;;;;4999060;28;20412;-70
2023/01/20 07:28:36;;;;;;;35.83;28.33;;;0.50;99.90;;;;;;5010290;28;20654;-70
2023/01/20 07:31:09;;;;;;;37.37;28.40;;;0.50;99.90;;;;;;5009967;28;20199;-70
2023/01/20 07:33:35;;;;;;;41.27;29.97;;;0.50;99.90;;;;;;5011779;28;20178;-70
2023/01/20 07:36:02;;;;;;;42.50;30.13;;;0.50;99.90;;;;;;5011373;28;20211;-70
2023/01/20 07:38:29;;;;;;;37.60;29.10;;;0.60;99.90;;;;;;5002596;28;20236;-71
2023/01/20 07:40:58;;;;;;;40.50;27.10;;;0.60;99.90;;;;;;4991962;28;20229;-71
2023/01/20 07:43:24;;;;;;;40.87;29.93;;;0.60;99.90;;;;;;4991785;28;20284;-71
2023/01/20 07:45:57;;;;;;;42.33;28.27;;;0.60;99.90;;;;;;5009211;28;20346;-71
2023/01/20 07:48:24;;;;;;;45.67;29.17;;;0.60;99.90;;;;;;5011028;28;20192;-70
2023/01/20 07:51:04;;;;;;;36.67;28.50;;;0.60;99.90;;;;;;5011166;28;20195;-71
2023/01/20 07:53:37;;;;;;;36.10;28.37;;;0.60;99.90;;;;;;5011322;28;20208;-70
2023/01/20 07:56:09;;;;;;;40.53;27.77;;;0.60;99.90;;;;;;5011436;28;20184;-70
2023/01/20 07:58:36;;;;;;;41.10;28.20;;;0.60;99.90;;;;;;5010390;28;20651;-71
2023/01/20 08:01:08;;;;;;;38.77;28.43;;;0.60;99.90;;;;;;5010795;28;20215;-71
2023/01/20 08:03:34;;;;;;;35.40;26.63;;;0.60;99.90;;;;;;5011014;28;20195;-71
2023/01/20 08:06:05;;;;;;;38.13;28.77;;;0.70;99.90;;;;;;5009881;28;20377;-71
2023/01/20 08:08:33;;;;;;;38.57;28.27;;;0.70;99.90;;;;;;5011605;28;20671;-72
2023/01/20 08:11:00;;;;;;;39.03;27.10;;;0.70;99.90;;;;;;5011233;28;20201;-72
2023/01/20 08:13:29;;;;;;;32.73;25.47;;;0.70;99.90;;;;;;5009587;28;20599;-70
2023/01/20 08:15:58;;;;;;;32.40;24.50;;;0.80;99.90;;;;;;4995040;28;20687;-71
2023/01/20 08:18:23;;;;;;;34.60;25.27;;;0.80;99.90;;;;;;4990870;28;20229;-72
2023/01/20 08:20:49;;;;;;;30.37;23.20;;;0.90;99.90;;;;;;4991341;28;20238;-71
2023/01/20 08:23:16;;;;;;;33.47;25.87;;;0.90;99.90;;;;;;4992096;28;20293;-71
2023/01/20 08:25:42;;;;;;;34.53;25.77;;;1.00;99.90;;;;;;4994965;28;20207;-72
2023/01/20 08:28:08;;;;;;;33.43;24.97;;;1.10;99.90;;;;;;5010479;28;20650;-71
2023/01/20 08:30:34;;;;;;;34.73;25.30;;;1.20;99.90;;;;;;5000894;28;20206;-71
2023/01/20 08:33:00;;;;;;;30.63;24.87;;;1.20;99.90;;;;;;4996482;28;20238;-72
2023/01/20 08:35:26;;;;;;;32.30;25.63;;;1.30;99.90;;;;;;5009232;28;20243;-70
2023/01/20 08:37:52;;;;;;;38.10;27.40;;;1.30;99.90;;;;;;5009142;28;20180;-70
2023/01/20 08:40:18;;;;;;;33.13;23.07;;;1.40;99.90;;;;;;5010307;28;20646;-70
2023/01/20 08:42:43;;;;;;;29.30;22.80;;;1.50;99.90;;;;;;5010936;28;20723;-70
2023/01/20 08:45:09;;;;;;;32.47;23.60;;;1.50;99.90;;;;;;5010718;28;20179;-71
2023/01/20 08:47:37;;;;;;;31.27;22.03;;;1.60;99.90;;;;;;5002779;28;20313;-70
2023/01/20 08:50:05;;;;;;;33.90;23.60;;;1.60;99.90;;;;;;4996593;28;20650;-71
2023/01/20 08:52:31;;;;;;;33.70;23.37;;;1.60;99.90;;;;;;4993933;28;20255;-71
2023/01/20 08:54:57;;;;;;;27.77;24.10;;;1.70;99.90;;;;;;5008292;28;20178;-71
2023/01/20 08:57:27;;;;;;;35.53;27.87;;;1.70;99.90;;;;;;5013101;28;20186;-71
2023/01/20 08:59:54;;;;;;;33.80;30.17;;;1.60;99.90;;;;;;5014703;28;20653;-71
2023/01/20 09:02:22;;;;;;;33.23;29.63;;;1.60;99.90;;;;;;5012764;28;20585;-70
2023/01/20 09:04:49;;;;;;;32.13;28.53;;;1.60;99.90;;;;;;5013540;28;20229;-70
2023/01/20 09:07:16;;;;;;;31.77;26.17;;;1.60;99.90;;;;;;5013210;28;20675;-71
2023/01/20 09:09:42;;;;;;;35.17;24.47;;;1.60;99.90;;;;;;5014552;28;20203;-70
2023/01/20 09:12:08;;;;;;;33.37;22.20;;;1.60;99.90;;;;;;5014510;28;20230;-71
2023/01/20 09:14:33;;;;;;;28.60;20.30;;;1.60;99.90;;;;;;5012917;28;20637;-71
2023/01/20 09:17:01;;;;;;;26.77;20.07;;;1.60;99.90;;;;;;5012790;28;20194;-71
2023/01/20 09:19:29;;;;;;;24.80;19.80;;;1.60;99.90;;;;;;5014345;28;20177;-70
2023/01/20 09:21:55;;;;;;;29.50;19.43;;;1.60;99.90;;;;;;5012912;28;20234;-71
2023/01/20 09:24:21;;;;;;;23.33;19.23;;;1.70;99.90;;;;;;5013867;28;20206;-70
2023/01/20 09:26:48;;;;;;;28.33;20.33;;;1.80;99.90;;;;;;5012502;28;20209;-71
2023/01/20 09:29:18;;;;;;;24.73;19.73;;;1.90;99.90;;;;;;5012561;28;20273;-72
2023/01/20 09:31:51;;;;;;;28.13;19.83;;;2.00;99.90;;;;;;5013969;28;20209;-72
2023/01/20 09:34:23;;;;;;;24.17;19.43;;;2.10;99.90;;;;;;5012770;28;20184;-72
2023/01/20 09:45:57;;;;;;;25.50;18.87;;;2.50;99.90;;;;;;5013589;28;20288;-73
2023/01/20 09:54:35;;;;;;;34.20;22.83;;;2.70;99.90;;;;;;5013705;28;20190;-73
2023/01/20 09:57:01;;;;;;;27.73;22.23;;;2.70;99.90;;;;;;5013110;28;20568;-75
2023/01/20 09:59:34;;;;;;;30.27;24.90;;;2.90;99.90;;;;;;5013653;28;20185;-74
2023/01/20 10:02:06;;;;;;;29.47;23.67;;;3.00;99.90;;;;;;5010774;28;20222;-74
2023/01/20 10:04:46;;;;;;;29.30;25.03;;;3.20;99.90;;;;;;5010262;28;20197;-76
2023/01/20 10:07:33;;;;;;;29.60;23.43;;;3.50;99.90;;;;;;4991309;28;20308;-75
2023/01/20 10:10:14;;;;;;;31.07;22.10;;;3.70;99.90;;;;;;4992560;28;20646;-75
2023/01/20 10:12:52;;;;;;;22.00;19.70;;;3.90;99.90;;;;;;5012384;28;20553;-75
2023/01/20 10:15:28;;;;;;;30.33;21.53;;;4.20;99.90;;;;;;5031362;23;20318;-76
2023/01/20 10:18:09;;;;;;;24.63;22.03;;;5.10;99.90;;;;;;4973509;28;20195;-75
2023/01/20 10:20:45;;;;;;;24.93;19.37;;;5.60;99.90;;;;;;4974132;28;20705;-75
2023/01/20 10:23:23;;;;;;;22.50;18.33;;;5.50;99.90;;;;;;4973130;28;20672;-76
2023/01/20 10:25:57;;;;;;;22.93;17.20;;;5.10;99.90;;;;;;4989241;28;20214;-75
2023/01/20 10:28:27;;;;;;;18.90;16.90;;;5.00;99.90;;;;;;4992154;28;20188;-75
2023/01/20 10:30:55;;;;;;;23.13;18.13;;;4.40;99.90;;;;;;4978982;28;20191;-75
2023/01/20 10:33:40;;;;;;;22.27;18.77;;;4.20;99.90;;;;;;4974369;28;20188;-75
2023/01/20 10:36:23;;;;;;;24.80;21.60;;;4.10;99.90;;;;;;4984346;28;20210;-75
2023/01/20 10:39:03;;;;;;;24.87;21.00;;;3.70;99.90;;;;;;4992933;28;20605;-75
2023/01/20 10:41:43;;;;;;;24.40;19.93;;;3.60;99.90;;;;;;4993483;28;20241;-75
2023/01/20 10:44:11;;;;;;;23.33;20.20;;;3.50;99.90;;;;;;4992768;28;20199;-74
2023/01/20 10:47:14;;;;;;;26.20;22.50;;;3.50;99.90;;;;;;4992030;28;20215;-76
2023/01/20 10:50:16;;;;;;;27.37;24.23;;;3.50;99.90;;;;;;4973400;28;20187;-75
2023/01/20 10:53:05;;;;;;;24.93;20.37;;;3.70;99.90;;;;;;4975851;28;20252;-75
2023/01/20 10:55:59;;;;;;;24.30;21.37;;;4.00;99.90;;;;;;4992832;28;20200;-75
2023/01/20 10:58:31;;;;;;;24.70;20.03;;;4.40;99.90;;;;;;4992450;28;20193;-75
2023/01/20 11:01:02;;;;;;;24.50;20.07;;;5.30;99.90;;;;;;4991807;28;20640;-75
2023/01/20 11:03:34;;;;;;;18.83;16.23;;;6.00;99.90;;;;;;4995850;28;20184;-75
2023/01/20 11:06:01;;;;;;;22.30;18.23;;;6.40;99.90;;;;;;4994142;28;20257;-74
2023/01/20 11:08:29;;;;;;;22.97;18.20;;;6.80;99.90;;;;;;4991706;28;20180;-75
2023/01/20 11:11:00;;;;;;;17.30;15.43;;;7.60;99.90;;;;;;4992627;28;20193;-74
2023/01/20 11:13:26;;;;;;;18.47;15.70;;;8.40;99.90;;;;;;4992293;28;20271;-74
2023/01/20 11:16:09;;;;;;;20.27;15.67;;;8.20;99.90;;;;;;4993417;28;20223;-74
2023/01/20 11:18:35;;;;;;;16.33;13.53;;;9.20;99.90;;;;;;5013928;28;20199;-74
2023/01/20 11:21:11;;;;;;;15.33;13.00;;;10.00;99.90;;;;;;4993124;28;20645;-75
2023/01/20 11:23:50;;;;;;;17.23;15.57;;;10.20;99.90;;;;;;4988802;28;20687;-75
2023/01/20 11:26:19;;;;;;;19.73;17.73;;;10.60;99.90;;;;;;4990402;28;20303;-74
2023/01/20 11:29:08;;;;;;;15.03;12.63;;;11.20;99.90;;;;;;4990176;28;20238;-74
2023/01/20 11:31:44;;;;;;;14.60;13.10;;;12.40;99.90;;;;;;4992708;28;20180;-78
2023/01/20 11:34:33;;;;;;;17.60;16.00;;;12.80;99.90;;;;;;4975565;28;20212;-74
2023/01/20 11:37:05;;;;;;;17.13;15.50;;;13.20;99.90;;;;;;4977911;28;20219;-74
2023/01/20 11:39:38;;;;;;;17.13;15.43;;;12.60;99.90;;;;;;4992213;28;20184;-73
2023/01/20 11:42:21;;;;;;;15.10;13.73;;;12.40;99.90;;;;;;4992198;28;20189;-73
2023/01/20 11:44:52;;;;;;;20.13;14.30;;;11.90;99.90;;;;;;4991352;28;20675;-73
2023/01/20 11:47:35;;;;;;;22.97;20.50;;;10.60;99.90;;;;;;4991481;28;20212;-74
2023/01/20 11:50:07;;;;;;;20.13;18.33;;;8.80;99.90;;;;;;4991270;28;20215;-75
2023/01/20 11:52:38;;;;;;;16.13;14.70;;;7.90;99.90;;;;;;4991417;28;20668;-74
2023/01/20 11:55:13;;;;;;;20.57;17.50;;;6.90;99.90;;;;;;4988336;28;20177;-75
2023/01/20 11:58:06;;;;;;;17.87;14.07;;;6.10;99.90;;;;;;4972555;28;20227;-75
2023/01/20 12:00:40;;;;;;;19.50;15.57;;;6.40;99.90;;;;;;4971137;28;20201;-75
2023/01/20 12:03:09;;;;;;;19.47;16.87;;;6.90;99.90;;;;;;4972664;28;20191;-73
2023/01/20 12:06:00;;;;;;;20.37;17.13;;;7.30;99.90;;;;;;4985775;28;20207;-75
2023/01/20 12:08:33;;;;;;;20.37;18.17;;;7.10;99.90;;;;;;4992454;28;20180;-78
2023/01/20 12:11:04;;;;;;;20.47;18.20;;;6.70;99.90;;;;;;4992375;28;20180;-74
2023/01/20 12:16:30;;;;;;;22.90;20.47;;;6.60;99.90;;;;;;4991658;28;20219;-79
2023/01/20 12:19:08;;;;;;;21.80;19.73;;;6.50;99.90;;;;;;4990820;28;20184;-74
2023/01/20 12:21:39;;;;;;;21.20;19.10;;;6.40;99.90;;;;;;4988405;28;20192;-78
2023/01/20 12:24:27;;;;;;;20.90;18.93;;;6.30;99.90;;;;;;4974567;28;20263;-79
2023/01/20 12:26:53;;;;;;;16.47;14.70;;;6.00;99.90;;;;;;4971347;28;20339;-76
2023/01/20 12:29:34;;;;;;;15.60;14.03;;;5.80;99.90;;;;;;4973307;28;20192;-78
2023/01/20 12:32:00;;;;;;;17.53;13.37;;;6.00;99.90;;;;;;4981425;28;20191;-75
2023/01/20 12:34:30;;;;;;;18.90;13.90;;;6.20;99.90;;;;;;4993742;28;20188;-75
2023/01/20 12:37:06;;;;;;;18.40;16.37;;;6.40;99.90;;;;;;4990997;28;20338;-70
2023/01/20 12:40:06;;;;;;;20.33;17.43;;;6.50;99.90;;;;;;4991441;28;20180;-69
2023/01/20 12:42:56;;;;;;;22.47;17.70;;;6.70;99.90;;;;;;4991321;28;20235;-71
2023/01/20 12:45:40;;;;;;;21.73;19.57;;;6.60;99.90;;;;;;4989941;28;20208;-68
2023/01/20 12:48:24;;;;;;;21.97;19.83;;;6.30;99.90;;;;;;4971699;28;20244;-70
2023/01/20 12:51:01;;;;;;;22.03;20.10;;;6.60;99.90;;;;;;4971950;28;20283;-69
2023/01/20 12:53:56;;;;;;;23.07;20.77;;;7.10;99.90;;;;;;4977024;28;20626;-69
2023/01/20 12:56:52;;;;;;;20.33;18.63;;;7.50;99.90;;;;;;4929018;28;20320;-73
2023/01/20 12:59:27;;;;;;;19.20;16.80;;;7.70;99.90;;;;;;5006160;28;20193;-73
2023/01/20 13:02:14;;;;;;;17.67;15.97;;;7.60;99.90;;;;;;4984544;28;20195;-73
2023/01/20 13:04:58;;;;;;;19.00;17.10;;;7.30;99.90;;;;;;4991446;28;20180;-73
2023/01/20 13:07:27;;;;;;;22.00;20.10;;;6.40;99.90;;;;;;4989368;28;20269;-73
2023/01/20 13:10:11;;;;;;;21.80;19.50;;;6.10;99.90;;;;;;4991063;28;20268;-74
2023/01/20 13:13:02;;;;;;;21.73;19.73;;;6.10;99.90;;;;;;4990775;28;20667;-73
2023/01/20 13:15:33;;;;;;;21.87;19.90;;;6.20;99.90;;;;;;4971632;28;20692;-74
2023/01/20 13:18:22;;;;;;;21.97;20.13;;;6.20;99.90;;;;;;4971392;28;20194;-73
2023/01/20 13:20:49;;;;;;;22.20;20.30;;;6.10;99.90;;;;;;4971918;28;20189;-73
2023/01/20 13:23:23;;;;;;;20.93;19.23;;;5.90;99.90;;;;;;4971512;28;20577;-73
2023/01/20 13:25:51;;;;;;;22.63;20.63;;;5.90;99.90;;;;;;4971813;28;20221;-73
2023/01/20 13:28:19;;;;;;;22.57;20.57;;;6.10;99.90;;;;;;4983601;28;20602;-73
2023/01/20 13:30:49;;;;;;;21.17;18.97;;;6.30;99.90;;;;;;4991760;28;20275;-73
2023/01/20 13:33:30;;;;;;;20.03;18.03;;;6.90;99.90;;;;;;4991072;28;20313;-73
2023/01/20 13:35:58;;;;;;;15.80;14.30;;;8.90;99.90;;;;;;4991675;28;20671;-73
2023/01/20 13:38:29;;;;;;;16.83;12.13;;;9.90;99.90;;;;;;4994411;28;20223;-73
2023/01/20 13:41:05;;;;;;;13.37;12.00;;;10.20;99.90;;;;;;4994537;28;20192;-74
2023/01/20 13:43:33;;;;;;;12.67;11.47;;;10.70;99.90;;;;;;4993003;28;20202;-73
2023/01/20 13:46:02;;;;;;;12.87;11.57;;;10.50;99.90;;;;;;4993273;28;20235;-73
2023/01/20 13:48:29;;;;;;;14.33;12.53;;;10.60;99.90;;;;;;4994160;28;20188;-74
2023/01/20 13:51:18;;;;;;;13.67;11.93;;;10.10;99.90;;;;;;4993490;28;20192;-73
2023/01/20 13:53:43;;;;;;;21.80;12.23;;;11.20;99.90;;;;;;4993062;28;20207;-74
2023/01/20 13:56:29;;;;;;;15.57;13.67;;;12.60;99.90;;;;;;4994172;28;20569;-73
2023/01/20 13:58:58;;;;;;;16.03;14.53;;;12.90;99.90;;;;;;4993031;28;20204;-73
2023/01/20 14:01:26;;;;;;;14.17;12.80;;;12.00;99.90;;;;;;4994521;28;20267;-73
2023/01/20 14:04:17;;;;;;;14.43;11.97;;;12.30;99.90;;;;;;4974881;28;20192;-73
2023/01/20 14:06:47;;;;;;;13.80;12.50;;;12.40;98.30;;;;;;4973384;28;20217;-74
2023/01/20 14:09:21;;;;;;;13.23;12.07;;;12.80;97.30;;;;;;4979030;28;20175;-73
2023/01/20 14:11:55;;;;;;;11.70;10.60;;;13.20;97.00;;;;;;4993891;28;20176;-74
2023/01/20 14:14:25;;;;;;;13.43;11.07;;;11.90;97.50;;;;;;4994304;28;20184;-73
2023/01/20 14:16:51;;;;;;;11.60;10.60;;;12.20;98.30;;;;;;4992477;28;20244;-74
2023/01/20 14:19:33;;;;;;;13.40;12.00;;;11.40;98.80;;;;;;4993933;28;20180;-73
2023/01/20 14:22:01;;;;;;;13.70;12.60;;;9.80;99.90;;;;;;4992668;28;20239;-74
2023/01/20 14:24:33;;;;;;;14.93;13.43;;;8.60;99.90;;;;;;4993651;28;20593;-73
2023/01/20 14:27:30;;;;;;;12.60;11.47;;;7.90;99.90;;;;;;4993115;28;20696;-73
2023/01/20 14:30:11;;;;;;;11.17;9.30;;;6.80;99.90;;;;;;4993111;28;20197;-73
2023/01/20 14:32:37;;;;;;;13.50;11.70;;;5.50;99.90;;;;;;4992534;28;20181;-73
2023/01/20 14:35:16;;;;;;;15.33;13.97;;;5.10;99.90;;;;;;5000369;28;20183;-73
2023/01/20 14:37:42;;;;;;;14.97;10.87;;;4.80;99.90;;;;;;4993310;28;20188;-73
2023/01/20 14:40:22;;;;;;;11.37;9.40;;;4.50;99.90;;;;;;4996878;28;20311;-74
2023/01/20 14:43:06;;;;;;;18.47;16.87;;;4.30;99.90;;;;;;4999357;28;20184;-72
2023/01/20 14:45:35;;;;;;;21.33;19.50;;;4.00;99.90;;;;;;4994947;28;20242;-73
2023/01/20 14:48:02;;;;;;;16.03;14.63;;;3.70;99.90;;;;;;4999791;28;20266;-73
2023/01/20 14:50:28;;;;;;;12.93;9.93;;;3.50;99.90;;;;;;4992175;28;20676;-73
2023/01/20 14:52:55;;;;;;;12.63;11.37;;;3.40;99.90;;;;;;4991987;28;20231;-74
2023/01/20 14:55:31;;;;;;;12.60;11.40;;;3.30;99.90;;;;;;4992150;28;20227;-73
2023/01/20 14:57:57;;;;;;;12.67;11.37;;;3.20;99.90;;;;;;4991560;28;20183;-74
2023/01/20 15:00:33;;;;;;;15.10;11.40;;;3.10;99.90;;;;;;4993376;28;20198;-73
2023/01/20 15:03:29;;;;;;;13.07;10.83;;;3.00;99.90;;;;;;4992997;28;20184;-74
2023/01/20 15:05:59;;;;;;;12.97;11.60;;;2.80;99.90;;;;;;4990111;28;20710;-73
2023/01/20 15:08:49;;;;;;;13.40;11.17;;;2.70;99.90;;;;;;4992509;28;20182;-73
2023/01/20 15:11:17;;;;;;;12.70;11.40;;;2.60;99.90;;;;;;4993240;28;20233;-73
2023/01/20 15:14:01;;;;;;;14.03;12.73;;;2.50;99.90;;;;;;4992948;28;20184;-73
2023/01/20 15:16:35;;;;;;;12.00;10.80;;;2.50;99.90;;;;;;4992605;28;20223;-73
2023/01/20 15:19:17;;;;;;;12.20;11.03;;;2.30;99.90;;;;;;4990502;28;20622;-74
2023/01/20 15:21:56;;;;;;;12.30;10.27;;;2.20;99.90;;;;;;4992687;28;20803;-73
2023/01/20 15:24:30;;;;;;;15.00;13.60;;;2.00;99.90;;;;;;4992629;28;20629;-74
2023/01/20 15:26:59;;;;;;;15.60;14.23;;;1.90;99.90;;;;;;4992271;28;20959;-73
2023/01/20 15:29:29;;;;;;;11.77;10.67;;;1.80;99.90;;;;;;4991176;28;20199;-74
2023/01/20 15:31:58;;;;;;;10.43;9.43;;;1.70;99.90;;;;;;4992429;28;20253;-73
2023/01/20 15:34:25;;;;;;;11.20;10.03;;;1.60;99.90;;;;;;4992375;28;20659;-73
2023/01/20 15:36:52;;;;;;;14.30;12.90;;;1.50;99.90;;;;;;4991077;28;20211;-73
2023/01/20 15:39:24;;;;;;;13.47;11.23;;;1.40;99.90;;;;;;4992194;28;20176;-73
2023/01/20 15:41:53;;;;;;;13.97;12.80;;;1.30;99.90;;;;;;4992430;28;20191;-73
2023/01/20 15:44:19;;;;;;;13.17;12.03;;;1.20;99.90;;;;;;4992209;28;20176;-74
2023/01/20 15:46:45;;;;;;;13.07;12.07;;;1.00;99.90;;;;;;4991843;28;20614;-76
2023/01/20 15:49:13;;;;;;;13.33;10.63;;;1.00;99.90;;;;;;4992299;28;20185;-73
2023/01/20 15:51:39;;;;;;;11.70;10.70;;;0.90;99.90;;;;;;4992312;28;20184;-74
2023/01/20 15:54:08;;;;;;;13.83;11.23;;;0.80;99.90;;;;;;4994239;28;20727;-74
2023/01/20 15:56:38;;;;;;;15.67;12.90;;;0.80;99.90;;;;;;4997786;28;20239;-74
2023/01/20 15:59:15;;;;;;;13.03;11.83;;;0.70;99.90;;;;;;4990335;28;20239;-73
2023/01/20 16:01:42;;;;;;;13.07;11.70;;;0.60;99.90;;;;;;4991870;28;20338;-74
2023/01/20 16:04:09;;;;;;;11.87;10.20;;;0.40;99.90;;;;;;4991023;28;20176;-74
2023/01/20 16:06:36;;;;;;;13.60;12.23;;;0.40;99.90;;;;;;4991226;28;20299;-73
2023/01/20 16:09:13;;;;;;;12.63;11.47;;;0.40;99.90;;;;;;4990182;28;20176;-74
2023/01/20 16:11:41;;;;;;;12.83;11.63;;;0.30;99.90;;;;;;4982772;28;20599;-72
2023/01/20 16:14:07;;;;;;;15.13;12.13;;;0.30;99.90;;;;;;4980095;28;20565;-74
2023/01/20 16:16:32;;;;;;;13.20;11.90;;;0.20;99.90;;;;;;4991373;28;20227;-73
2023/01/20 16:18:58;;;;;;;12.97;11.77;;;0.10;99.90;;;;;;5016809;23;20228;-70
2023/01/20 16:21:24;;;;;;;12.97;11.60;;;0.00;99.90;;;;;;4991226;28;20192;-70
2023/01/20 16:23:50;;;;;;;14.97;11.37;;;-0.10;99.90;;;;;;4995926;28;20191;-70
2023/01/20 16:26:23;;;;;;;13.57;11.17;;;-0.20;99.90;;;;;;5000114;28;20207;-70
2023/01/20 16:28:50;;;;;;;17.77;14.23;;;-0.30;99.90;;;;;;4998370;28;20293;-66
2023/01/20 16:31:16;;;;;;;19.43;14.77;;;-0.50;99.90;;;;;;4999984;28;20582;-68
2023/01/20 16:33:42;;;;;;;18.67;16.20;;;-0.50;99.90;;;;;;5001491;28;20194;-67
2023/01/20 16:36:13;;;;;;;22.33;14.93;;;-0.50;99.90;;;;;;5010776;28;20177;-68
2023/01/20 16:38:39;;;;;;;29.73;21.40;;;-0.40;99.90;;;;;;5009093;28;20247;-68
2023/01/20 16:41:20;;;;;;;25.77;19.53;;;-0.40;99.90;;;;;;5010639;28;20179;-68
2023/01/20 16:43:49;;;;;;;18.87;15.87;;;-0.30;99.90;;;;;;5012207;28;20180;-81
2023/01/20 16:46:20;;;;;;;23.43;16.83;;;-0.40;99.90;;;;;;5014675;28;20200;-81
2023/01/20 16:48:47;;;;;;;25.27;15.70;;;-0.60;99.90;;;;;;5015859;28;20276;-83
2023/01/20 16:51:14;;;;;;;23.67;16.67;;;-0.70;99.90;;;;;;5019892;28;20185;-84
2023/01/20 16:53:41;;;;;;;22.67;15.90;;;-0.80;99.90;;;;;;5024552;28;20186;-84
2023/01/20 16:56:28;;;;;;;25.20;17.17;;;-0.80;99.90;;;;;;5026465;28;20178;-86
2023/01/20 16:58:57;;;;;;;19.97;16.07;;;-0.80;99.90;;;;;;5013121;28;20207;-83
2023/01/20 17:01:26;;;;;;;20.20;14.67;;;-0.90;99.90;;;;;;5005721;28;20215;-82
2023/01/20 17:03:53;;;;;;;22.70;15.57;;;-0.80;99.90;;;;;;5030761;28;20194;-83
2023/01/20 17:06:22;;;;;;;21.87;16.17;;;-0.80;99.90;;;;;;5034865;28;20265;-85
2023/01/20 17:08:52;;;;;;;20.70;17.20;;;-0.90;99.90;;;;;;5014108;28;20215;-85
2023/01/20 17:11:30;;;;;;;27.53;19.20;;;-0.90;99.90;;;;;;5008071;28;20200;-85
2023/01/20 17:13:59;;;;;;;23.53;20.10;;;-0.90;99.90;;;;;;5008495;28;20208;-84